createdAt,value
2022-08-17T00:00:42.958Z,11.20
2022-08-17T00:03:11.298Z,10.90
2022-08-17T00:06:07.209Z,11.40
2022-08-17T00:08:39.833Z,10.70
2022-08-17T00:11:12.498Z,12.30
2022-08-17T00:13:48.119Z,10.80
2022-08-17T00:16:55.440Z,11.80
2022-08-17T00:19:23.784Z,11.10
2022-08-17T00:22:32.060Z,10.50
2022-08-17T00:24:44.400Z,11.70
2022-08-17T00:27:12.644Z,10.30
2022-08-17T00:29:41.219Z,9.70
2022-08-17T00:33:14.210Z,9.40
2022-08-17T00:34:57.628Z,10.10
2022-08-17T00:37:25.816Z,9.40
2022-08-17T00:39:54.130Z,8.60
2022-08-17T00:42:22.360Z,9.10
2022-08-17T00:44:50.788Z,9.10
2022-08-17T00:47:19.022Z,9.20
2022-08-17T00:49:47.335Z,8.70
2022-08-17T00:52:21.855Z,9.10
2022-08-17T00:54:53.051Z,8.60
2022-08-17T00:57:33.163Z,8.80
2022-08-17T01:00:07.084Z,9.20
2022-08-17T01:02:42.712Z,8.90
2022-08-17T01:05:21.141Z,9.20
2022-08-17T01:07:53.055Z,9.20
2022-08-17T01:11:00.533Z,8.70
2022-08-17T01:13:17.096Z,9.10
2022-08-17T01:15:57.588Z,10.20
2022-08-17T01:18:27.062Z,9.60
2022-08-17T01:20:57.824Z,9.00
2022-08-17T01:23:29.004Z,8.90
2022-08-17T01:25:59.976Z,8.90
2022-08-17T01:28:36.389Z,9.30
2022-08-17T01:31:19.923Z,9.40
2022-08-17T01:33:48.167Z,10.30
2022-08-17T01:36:16.375Z,9.40
2022-08-17T01:38:44.643Z,9.20
2022-08-17T01:41:16.681Z,9.10
2022-08-17T01:43:51.163Z,9.80
2022-08-17T01:46:24.477Z,8.50
2022-08-17T01:48:53.737Z,11.90
2022-08-17T01:51:22.539Z,9.10
2022-08-17T01:53:57.657Z,9.60
2022-08-17T01:56:28.810Z,10.40
2022-08-17T01:58:57.466Z,9.10
2022-08-17T02:01:29.612Z,9.10
2022-08-17T02:04:00.462Z,10.50
2022-08-17T02:06:52.431Z,8.70
2022-08-17T02:09:23.338Z,9.40
2022-08-17T02:14:27.238Z,10.00
2022-08-17T02:16:56.253Z,9.30
2022-08-17T02:19:24.517Z,8.80
2022-08-17T02:21:54.324Z,11.10
2022-08-17T02:25:01.115Z,10.60
2022-08-17T02:27:20.574Z,10.30
2022-08-17T02:29:48.822Z,10.40
2022-08-17T02:32:27.561Z,10.50
2022-08-17T02:35:00.333Z,11.20
2022-08-17T02:37:30.073Z,11.70
2022-08-17T02:39:59.685Z,12.30
2022-08-17T02:42:33.918Z,11.60
2022-08-17T02:45:03.168Z,11.90
2022-08-17T02:47:31.506Z,11.30
2022-08-17T02:49:59.900Z,12.40
2022-08-17T02:52:43.492Z,11.90
2022-08-17T02:57:58.666Z,11.70
2022-08-17T03:00:34.014Z,11.80
2022-08-17T03:03:04.849Z,11.50
2022-08-17T03:05:36.122Z,11.50
2022-08-17T03:08:05.953Z,11.10
2022-08-17T03:10:34.673Z,12.20
2022-08-17T03:13:03.264Z,11.40
2022-08-17T03:15:34.350Z,11.10
2022-08-17T03:18:03.736Z,11.20
2022-08-17T03:20:33.309Z,11.80
2022-08-17T03:23:02.744Z,12.80
2022-08-17T03:25:35.517Z,12.70
2022-08-17T03:28:05.001Z,14.30
2022-08-17T03:30:34.485Z,13.40
2022-08-17T03:33:05.666Z,13.60
2022-08-17T03:35:36.625Z,12.70
2022-08-17T03:38:05.298Z,13.40
2022-08-17T03:40:34.494Z,14.00
2022-08-17T03:43:22.897Z,14.10
2022-08-17T03:46:34.004Z,13.80
2022-08-17T03:49:17.030Z,15.40
2022-08-17T03:52:03.812Z,14.80
2022-08-17T03:54:50.518Z,14.20
2022-08-17T03:57:19.416Z,15.70
2022-08-17T03:59:47.910Z,14.90
2022-08-17T04:02:20.189Z,15.00
2022-08-17T04:04:51.299Z,15.80
2022-08-17T04:07:24.361Z,14.70
2022-08-17T04:09:52.505Z,16.60
2022-08-17T04:12:23.615Z,15.80
2022-08-17T04:14:54.673Z,14.60
2022-08-17T04:17:28.562Z,14.70
2022-08-17T04:19:57.392Z,14.50
2022-08-17T04:22:31.347Z,14.20
2022-08-17T04:25:23.977Z,14.80
2022-08-17T04:27:52.453Z,14.70
2022-08-17T04:30:21.285Z,14.20
2022-08-17T04:33:06.157Z,13.60
2022-08-17T04:35:41.910Z,14.00
2022-08-17T04:38:15.907Z,14.40
2022-08-17T04:41:02.721Z,14.10
2022-08-17T04:43:33.000Z,13.00
2022-08-17T04:46:05.539Z,13.10
2022-08-17T04:48:45.904Z,14.00
2022-08-17T04:51:27.947Z,13.80
2022-08-17T04:53:59.491Z,13.40
2022-08-17T04:56:29.537Z,14.60
2022-08-17T04:59:01.449Z,12.50
2022-08-17T05:01:32.462Z,14.00
2022-08-17T05:04:33.159Z,13.20
2022-08-17T05:06:54.685Z,13.20
2022-08-17T05:09:23.005Z,13.00
2022-08-17T05:11:52.708Z,13.10
2022-08-17T05:14:32.930Z,13.20
2022-08-17T05:17:07.088Z,13.40
2022-08-17T05:19:39.550Z,12.80
2022-08-17T05:22:07.953Z,13.20
2022-08-17T05:24:42.727Z,13.80
2022-08-17T05:27:19.067Z,14.10
2022-08-17T05:29:47.481Z,14.30
2022-08-17T05:32:39.173Z,13.80
2022-08-17T05:35:05.557Z,14.10
2022-08-17T05:37:33.741Z,14.50
2022-08-17T05:40:02.066Z,14.00
2022-08-17T05:42:30.351Z,13.90
2022-08-17T05:44:59.030Z,13.80
2022-08-17T05:47:27.742Z,13.40
2022-08-17T05:49:56.414Z,14.10
2022-08-17T05:53:02.357Z,13.10
2022-08-17T05:55:42.386Z,13.30
2022-08-17T05:58:39.647Z,13.50
2022-08-17T06:01:15.939Z,12.60
2022-08-17T06:03:44.133Z,13.00
2022-08-17T06:06:40.862Z,13.20
2022-08-17T06:09:25.739Z,13.70
2022-08-17T06:12:32.814Z,12.30
2022-08-17T06:15:26.373Z,11.50
2022-08-17T06:17:58.674Z,12.90
2022-08-17T06:20:38.692Z,11.70
2022-08-17T06:23:12.314Z,12.40
2022-08-17T06:25:50.430Z,11.80
2022-08-17T06:28:30.586Z,12.30
2022-08-17T06:31:05.881Z,12.00
2022-08-17T06:33:37.682Z,11.20
2022-08-17T06:36:13.796Z,11.00
2022-08-17T06:38:53.710Z,10.80
2022-08-17T06:41:32.617Z,10.90
2022-08-17T06:44:43.390Z,11.10
2022-08-17T06:47:13.730Z,10.60
2022-08-17T06:49:44.935Z,10.90
2022-08-17T06:52:45.835Z,11.20
2022-08-17T06:55:20.401Z,10.90
2022-08-17T06:57:58.217Z,10.40
2022-08-17T07:00:47.865Z,10.30
2022-08-17T07:03:39.912Z,10.30
2022-08-17T07:06:15.108Z,10.70
2022-08-17T07:09:01.223Z,10.40
2022-08-17T07:11:36.903Z,10.20
2022-08-17T07:14:37.709Z,9.50
2022-08-17T07:17:12.260Z,9.50
2022-08-17T07:19:45.730Z,9.50
2022-08-17T07:24:47.525Z,10.30
2022-08-17T07:27:22.165Z,9.50
2022-08-17T07:29:53.856Z,10.00
2022-08-17T07:32:27.533Z,10.20
2022-08-17T07:35:17.491Z,9.70
2022-08-17T07:38:24.857Z,10.10
2022-08-17T07:41:03.819Z,11.00
2022-08-17T07:43:38.132Z,10.80
2022-08-17T07:46:42.940Z,10.90
2022-08-17T07:49:11.343Z,9.20
2022-08-17T07:51:44.301Z,11.60
2022-08-17T07:54:15.346Z,9.50
2022-08-17T07:56:45.887Z,9.90
2022-08-17T07:59:23.198Z,9.30
2022-08-17T08:01:57.599Z,9.50
2022-08-17T08:05:00.581Z,9.00
2022-08-17T08:07:36.089Z,9.40
2022-08-17T08:10:07.209Z,9.80
2022-08-17T08:12:43.456Z,9.00
2022-08-17T08:15:19.083Z,8.50
2022-08-17T08:17:54.601Z,8.90
2022-08-17T08:20:51.556Z,9.00
2022-08-17T08:23:50.956Z,7.90
2022-08-17T08:26:39.788Z,7.40
2022-08-17T08:29:32.905Z,8.60
2022-08-17T08:32:25.743Z,8.10
2022-08-17T08:35:29.779Z,8.30
2022-08-17T08:38:20.199Z,7.80
2022-08-17T08:40:51.328Z,7.50
2022-08-17T08:43:19.531Z,8.00
2022-08-17T08:45:50.729Z,8.00
2022-08-17T08:48:56.396Z,7.70
2022-08-17T08:51:51.681Z,7.70
2022-08-17T08:54:33.798Z,7.90
2022-08-17T08:57:29.176Z,8.00
2022-08-17T09:00:20.870Z,8.40
2022-08-17T09:03:13.381Z,7.50
2022-08-17T09:06:06.953Z,7.80
2022-08-17T09:09:10.420Z,7.90
2022-08-17T09:14:50.052Z,7.80
2022-08-17T09:17:30.211Z,7.30
2022-08-17T09:20:28.237Z,7.30
2022-08-17T09:23:08.808Z,7.60
2022-08-17T09:25:51.812Z,7.60
2022-08-17T09:28:28.177Z,8.10
2022-08-17T09:31:04.804Z,7.40
2022-08-17T09:33:40.096Z,7.00
2022-08-17T09:36:26.439Z,7.40
2022-08-17T09:39:01.807Z,7.50
2022-08-17T09:41:51.840Z,8.30
2022-08-17T09:44:36.231Z,7.80
2022-08-17T09:47:19.440Z,7.40
2022-08-17T09:49:54.388Z,8.00
2022-08-17T09:52:29.528Z,7.70
2022-08-17T09:55:01.084Z,7.90
2022-08-17T09:57:38.108Z,7.70
2022-08-17T10:00:27.618Z,7.60
2022-08-17T10:03:25.563Z,7.70
2022-08-17T10:06:07.885Z,8.20
2022-08-17T10:09:10.044Z,8.00
2022-08-17T10:12:17.355Z,8.00
2022-08-17T10:14:55.584Z,7.90
2022-08-17T10:17:30.317Z,8.30
2022-08-17T10:20:12.731Z,8.90
2022-08-17T10:23:08.293Z,8.70
2022-08-17T10:26:00.643Z,7.80
2022-08-17T10:28:36.996Z,8.00
2022-08-17T10:34:28.040Z,8.30
2022-08-17T10:37:28.667Z,8.20
2022-08-17T10:40:15.382Z,8.10
2022-08-17T10:42:50.395Z,8.00
2022-08-17T10:45:26.451Z,7.50
2022-08-17T10:48:06.167Z,7.50
2022-08-17T10:50:57.824Z,7.30
2022-08-17T10:53:31.954Z,7.00
2022-08-17T10:56:12.067Z,7.80
2022-08-17T10:58:55.447Z,7.10
2022-08-17T11:04:18.171Z,7.30
2022-08-17T11:07:14.709Z,7.40
2022-08-17T11:10:08.698Z,7.80
2022-08-17T11:12:55.394Z,7.70
2022-08-17T11:15:59.106Z,6.90
2022-08-17T11:19:10.330Z,7.70
2022-08-17T11:21:59.726Z,7.40
2022-08-17T11:24:31.063Z,7.30
2022-08-17T11:27:12.122Z,7.70
2022-08-17T11:30:01.487Z,7.80
2022-08-17T11:32:47.492Z,7.80
2022-08-17T11:35:22.375Z,7.90
2022-08-17T11:38:16.276Z,8.10
2022-08-17T11:41:00.333Z,8.70
2022-08-17T11:46:20.542Z,8.40
2022-08-17T11:49:32.830Z,8.80
2022-08-17T11:52:01.410Z,8.70
2022-08-17T11:54:46.472Z,9.80
2022-08-17T11:57:26.931Z,9.10
2022-08-17T11:59:58.444Z,9.20
2022-08-17T12:02:32.890Z,10.10
2022-08-17T12:05:23.175Z,9.80
2022-08-17T12:07:57.541Z,9.60
2022-08-17T12:10:32.144Z,10.10
2022-08-17T12:13:13.348Z,10.70
2022-08-17T12:15:54.184Z,10.50
2022-08-17T12:18:24.808Z,10.30
2022-08-17T12:21:30.687Z,10.40
2022-08-17T12:23:58.904Z,10.60
2022-08-17T12:26:34.085Z,10.90
2022-08-17T12:29:17.837Z,10.10
2022-08-17T12:32:02.267Z,10.80
2022-08-17T12:34:36.631Z,11.10
2022-08-17T12:37:16.396Z,12.20
2022-08-17T12:40:04.218Z,11.80
2022-08-17T12:42:37.433Z,12.00
2022-08-17T12:47:49.586Z,12.80
2022-08-17T12:50:29.602Z,13.10
2022-08-17T12:53:02.321Z,13.60
2022-08-17T12:55:37.229Z,13.30
2022-08-17T12:58:09.872Z,13.40
2022-08-17T13:00:48.847Z,13.80
2022-08-17T13:03:21.088Z,13.80
2022-08-17T13:05:52.105Z,13.40
2022-08-17T13:08:31.772Z,13.80
2022-08-17T13:11:04.173Z,13.50
2022-08-17T13:13:35.427Z,13.10
2022-08-17T13:16:26.610Z,13.20
2022-08-17T13:19:16.735Z,13.30
2022-08-17T13:21:55.129Z,13.00
2022-08-17T13:24:38.217Z,12.90
2022-08-17T13:29:53.603Z,11.80
2022-08-17T13:32:45.125Z,11.60
2022-08-17T13:35:40.003Z,11.30
2022-08-17T13:38:15.302Z,11.10
2022-08-17T13:40:50.813Z,10.90
2022-08-17T13:43:49.644Z,10.90
2022-08-17T13:46:26.309Z,10.80
2022-08-17T13:49:02.256Z,11.00
2022-08-17T13:51:35.256Z,10.50
2022-08-17T13:54:08.094Z,9.80
2022-08-17T13:56:50.132Z,10.00
2022-08-17T13:59:53.239Z,9.70
2022-08-17T14:02:19.936Z,9.90
2022-08-17T14:04:48.948Z,9.70
2022-08-17T14:07:18.317Z,9.80
2022-08-17T14:09:49.401Z,9.50
2022-08-17T14:12:21.733Z,9.00
2022-08-17T14:14:49.817Z,8.60
2022-08-17T14:17:19.152Z,9.00
2022-08-17T14:19:48.292Z,8.40
2022-08-17T14:22:23.808Z,9.30
2022-08-17T14:24:52.226Z,9.30
2022-08-17T14:27:21.225Z,9.20
2022-08-17T14:29:49.362Z,9.40
2022-08-17T14:32:27.173Z,9.60
2022-08-17T14:34:57.841Z,9.60
2022-08-17T14:37:28.613Z,9.10
2022-08-17T14:40:03.864Z,8.90
2022-08-17T14:42:35.227Z,9.00
2022-08-17T14:45:06.394Z,8.80
2022-08-17T14:47:54.517Z,8.80
2022-08-17T14:50:24.057Z,8.60
2022-08-17T14:52:52.367Z,8.60
2022-08-17T14:55:21.383Z,8.40
2022-08-17T14:57:49.752Z,9.10
2022-08-17T15:00:18.253Z,8.70
2022-08-17T15:02:53.904Z,9.30
2022-08-17T15:05:24.771Z,9.10
2022-08-17T15:07:54.006Z,8.70
2022-08-17T15:10:23.976Z,9.00
2022-08-17T15:12:54.588Z,8.80
2022-08-17T15:15:23.127Z,9.00
2022-08-17T15:17:51.783Z,8.90
2022-08-17T15:20:24.240Z,9.30
2022-08-17T15:22:56.230Z,9.10
2022-08-17T15:25:30.410Z,9.10
2022-08-17T15:27:59.540Z,9.30
2022-08-17T15:30:29.444Z,9.30
2022-08-17T15:32:59.580Z,8.50
2022-08-17T15:35:32.445Z,8.60
2022-08-17T15:38:11.334Z,8.60
2022-08-17T15:40:44.317Z,9.30
2022-08-17T15:43:15.615Z,9.20
2022-08-17T15:45:43.949Z,9.80
2022-08-17T15:48:14.780Z,9.40
2022-08-17T15:50:45.232Z,9.30
2022-08-17T15:53:14.304Z,9.30
2022-08-17T15:55:43.224Z,9.70
2022-08-17T15:58:11.563Z,9.30
2022-08-17T16:01:06.838Z,9.90
2022-08-17T16:03:58.047Z,9.30
2022-08-17T16:06:17.796Z,9.70
2022-08-17T16:08:46.107Z,10.00
2022-08-17T16:11:17.096Z,9.40
2022-08-17T16:13:51.300Z,9.30
2022-08-17T16:16:23.814Z,10.00
2022-08-17T16:18:56.340Z,11.60
2022-08-17T16:21:29.566Z,11.30
2022-08-17T16:24:04.141Z,10.60
2022-08-17T16:26:35.504Z,10.60
2022-08-17T16:29:06.860Z,10.40
2022-08-17T16:31:36.302Z,11.40
2022-08-17T16:34:17.304Z,11.30
2022-08-17T16:36:55.415Z,11.40
2022-08-17T16:39:29.346Z,11.40
2022-08-17T16:41:57.902Z,11.00
2022-08-17T16:44:31.016Z,10.90
2022-08-17T16:47:01.395Z,10.70
2022-08-17T16:49:36.762Z,10.90
2022-08-17T16:52:10.471Z,10.50
2022-08-17T16:54:43.813Z,11.00
2022-08-17T16:57:13.943Z,11.60
2022-08-17T16:59:44.913Z,11.20
2022-08-17T17:02:14.498Z,11.70
2022-08-17T17:05:20.830Z,11.00
2022-08-17T17:07:55.566Z,11.40
2022-08-17T17:10:30.938Z,10.70
2022-08-17T17:13:03.553Z,10.90
2022-08-17T17:18:13.096Z,12.00
2022-08-17T17:20:59.426Z,11.90
2022-08-17T17:23:43.747Z,11.70
2022-08-17T17:26:20.113Z,11.10
2022-08-17T17:29:00.381Z,11.80
2022-08-17T17:31:38.525Z,11.50
2022-08-17T17:34:10.792Z,11.50
2022-08-17T17:36:50.856Z,11.60
2022-08-17T17:39:43.746Z,10.70
2022-08-17T17:42:20.628Z,11.60
2022-08-17T17:44:59.504Z,11.50
2022-08-17T17:47:29.704Z,11.40
2022-08-17T17:50:01.493Z,11.60
2022-08-17T17:52:41.186Z,11.10
2022-08-17T17:55:18.426Z,11.50
2022-08-17T17:57:54.586Z,12.70
2022-08-17T18:00:49.154Z,11.10
2022-08-17T18:03:23.189Z,11.50
2022-08-17T18:06:06.403Z,11.90
2022-08-17T18:08:34.828Z,11.70
2022-08-17T18:11:12.270Z,12.10
2022-08-17T18:13:58.950Z,11.80
2022-08-17T18:16:31.902Z,11.40
2022-08-17T18:19:00.604Z,12.10
2022-08-17T18:21:44.418Z,12.00
2022-08-17T18:26:42.026Z,11.90
2022-08-17T18:29:22.418Z,11.50
2022-08-17T18:32:16.410Z,11.60
2022-08-17T18:37:43.401Z,12.00
2022-08-17T18:40:17.951Z,11.40
2022-08-17T18:43:05.890Z,12.50
2022-08-17T18:45:34.111Z,11.80
2022-08-17T18:48:02.700Z,11.50
2022-08-17T18:50:41.501Z,11.60
2022-08-17T18:53:40.886Z,11.60
2022-08-17T18:56:20.725Z,11.00
2022-08-17T18:59:11.921Z,12.00
2022-08-17T19:01:59.853Z,12.00
2022-08-17T19:04:59.441Z,12.50
2022-08-17T19:07:32.178Z,12.40
2022-08-17T19:10:09.177Z,13.10
2022-08-17T19:12:40.330Z,12.10
2022-08-17T19:15:12.516Z,13.00
2022-08-17T19:17:46.419Z,13.00
2022-08-17T19:20:17.572Z,12.70
2022-08-17T19:22:55.941Z,12.90
2022-08-17T19:25:29.754Z,12.50
2022-08-17T19:28:22.273Z,12.50
2022-08-17T19:30:56.641Z,12.80
2022-08-17T19:33:26.311Z,12.70
2022-08-17T19:36:24.006Z,13.40
2022-08-17T19:39:26.434Z,12.70
2022-08-17T19:42:18.082Z,13.40
2022-08-17T19:44:58.930Z,13.70
2022-08-17T19:47:53.831Z,13.10
2022-08-17T19:50:41.197Z,13.50
2022-08-17T19:54:01.579Z,13.00
2022-08-17T19:59:11.880Z,13.60
2022-08-17T20:02:01.132Z,13.20
2022-08-17T20:04:32.365Z,14.00
2022-08-17T20:07:06.451Z,14.10
2022-08-17T20:09:38.202Z,15.80
2022-08-17T20:12:18.685Z,14.50
2022-08-17T20:15:27.764Z,14.10
2022-08-17T20:18:00.109Z,14.20
2022-08-17T20:20:35.908Z,13.90
2022-08-17T20:23:31.895Z,13.90
2022-08-17T20:26:18.961Z,13.00
2022-08-17T20:29:10.449Z,14.10
2022-08-17T20:31:58.695Z,13.20
2022-08-17T20:34:33.574Z,13.70
2022-08-17T20:37:14.900Z,13.80
2022-08-17T20:40:09.293Z,13.00
2022-08-17T20:42:37.729Z,13.90
2022-08-17T20:45:21.160Z,14.40
2022-08-17T20:48:18.457Z,13.90
2022-08-17T20:50:50.734Z,13.70
2022-08-17T20:53:52.315Z,13.90
2022-08-17T20:56:43.507Z,13.80
2022-08-17T20:59:20.550Z,13.60
2022-08-17T21:02:17.664Z,13.80
2022-08-17T21:04:50.045Z,14.10
2022-08-17T21:07:43.597Z,14.10
2022-08-17T21:10:18.097Z,14.50
2022-08-17T21:12:51.542Z,13.40
2022-08-17T21:18:18.456Z,13.70
2022-08-17T21:21:20.930Z,14.40
2022-08-17T21:24:07.033Z,13.70
2022-08-17T21:26:39.038Z,14.80
2022-08-17T21:32:02.153Z,14.50
2022-08-17T21:34:37.285Z,16.00
2022-08-17T21:37:20.500Z,15.70
2022-08-17T21:39:51.926Z,15.50
2022-08-17T21:42:29.201Z,14.40
2022-08-17T21:45:08.114Z,14.30
2022-08-17T21:47:40.681Z,14.40
2022-08-17T21:50:25.175Z,14.80
2022-08-17T21:52:54.593Z,14.40
2022-08-17T21:55:30.291Z,14.20
2022-08-17T21:58:14.054Z,14.60
2022-08-17T22:00:46.355Z,13.80
2022-08-17T22:03:30.377Z,14.40
2022-08-17T22:05:58.518Z,14.30
2022-08-17T22:08:26.982Z,14.50
2022-08-17T22:11:02.150Z,15.00
2022-08-17T22:13:30.325Z,14.30
2022-08-17T22:16:05.900Z,14.30
2022-08-17T22:18:53.727Z,14.30
2022-08-17T22:21:22.441Z,14.70
2022-08-17T22:24:04.429Z,15.20
2022-08-17T22:27:00.395Z,15.20
2022-08-17T22:29:46.863Z,15.30
2022-08-17T22:32:38.514Z,16.00
2022-08-17T22:35:32.659Z,16.70
2022-08-17T22:40:53.912Z,15.60
2022-08-17T22:43:26.304Z,15.90
2022-08-17T22:46:00.160Z,16.40
2022-08-17T22:51:14.473Z,16.20
2022-08-17T22:54:07.997Z,15.80
2022-08-17T22:56:55.141Z,16.00
2022-08-17T22:59:41.949Z,16.00
2022-08-17T23:02:14.850Z,16.20
2022-08-17T23:05:16.613Z,16.20
2022-08-17T23:07:46.727Z,15.60
2022-08-17T23:10:15.498Z,15.30
2022-08-17T23:12:43.617Z,16.50
2022-08-17T23:15:16.294Z,16.10
2022-08-17T23:17:45.484Z,16.40
2022-08-17T23:20:15.739Z,16.50
2022-08-17T23:22:52.194Z,15.80
2022-08-17T23:25:31.041Z,15.20
2022-08-17T23:28:03.728Z,15.80
2022-08-17T23:30:43.422Z,15.80
2022-08-17T23:33:39.877Z,16.60
2022-08-17T23:36:09.883Z,15.80
2022-08-17T23:38:38.016Z,16.00
2022-08-17T23:41:12.269Z,15.70
2022-08-17T23:43:56.516Z,15.90
2022-08-17T23:46:25.240Z,15.80
2022-08-17T23:48:54.189Z,16.00
2022-08-17T23:51:27.528Z,15.80
2022-08-17T23:54:05.787Z,14.80
2022-08-17T23:56:44.579Z,16.20
2022-08-17T23:59:15.040Z,14.90
